sensor_id;sensor_type;location;lat;lon;timestamp;pressure;altitude;pressure_sealevel;temperature;humidity
72086;BME280;64750;52.134;5.424;2023-09-08T00:02:13;101870.50;;;21.53;69.52
72086;BME280;64750;52.134;5.424;2023-09-08T00:04:39;101866.41;;;21.49;69.79
72086;BME280;64750;52.134;5.424;2023-09-08T00:07:06;101870.78;;;21.50;69.60
72086;BME280;64750;52.134;5.424;2023-09-08T00:09:32;101865.84;;;21.45;69.70
72086;BME280;64750;52.134;5.424;2023-09-08T00:11:59;101865.00;;;21.45;69.67
72086;BME280;64750;52.134;5.424;2023-09-08T00:14:25;101862.75;;;21.40;69.69
72086;BME280;64750;52.134;5.424;2023-09-08T00:16:52;101858.81;;;21.44;69.59
72086;BME280;64750;52.134;5.424;2023-09-08T00:19:21;101863.16;;;21.45;69.27
72086;BME280;64750;52.134;5.424;2023-09-08T00:21:49;101862.59;;;21.42;69.45
72086;BME280;64750;52.134;5.424;2023-09-08T00:24:16;101871.31;;;21.34;69.49
72086;BME280;64750;52.134;5.424;2023-09-08T00:26:44;101864.00;;;21.26;69.82
72086;BME280;64750;52.134;5.424;2023-09-08T00:29:11;101874.13;;;21.23;69.77
72086;BME280;64750;52.134;5.424;2023-09-08T00:31:37;101866.50;;;21.18;69.78
72086;BME280;64750;52.134;5.424;2023-09-08T00:34:04;101875.25;;;21.20;69.81
72086;BME280;64750;52.134;5.424;2023-09-08T00:36:31;101873.56;;;21.19;69.99
72086;BME280;64750;52.134;5.424;2023-09-08T00:38:57;101864.56;;;21.20;70.05
72086;BME280;64750;52.134;5.424;2023-09-08T00:41:24;101871.72;;;21.20;70.02
72086;BME280;64750;52.134;5.424;2023-09-08T00:43:50;101868.22;;;21.19;69.95
72086;BME280;64750;52.134;5.424;2023-09-08T00:46:17;101866.06;;;21.13;69.92
72086;BME280;64750;52.134;5.424;2023-09-08T00:48:44;101869.44;;;21.05;70.18
72086;BME280;64750;52.134;5.424;2023-09-08T00:51:11;101875.03;;;21.02;70.21
72086;BME280;64750;52.134;5.424;2023-09-08T00:53:38;101874.34;;;21.00;70.30
72086;BME280;64750;52.134;5.424;2023-09-08T00:56:04;101866.72;;;20.95;70.68
72086;BME280;64750;52.134;5.424;2023-09-08T00:58:31;101866.72;;;20.95;70.55
72086;BME280;64750;52.134;5.424;2023-09-08T01:00:59;101868.69;;;20.93;70.63
72086;BME280;64750;52.134;5.424;2023-09-08T01:03:25;101861.66;;;20.92;70.59
72086;BME280;64750;52.134;5.424;2023-09-08T01:05:52;101871.47;;;20.92;70.51
72086;BME280;64750;52.134;5.424;2023-09-08T01:08:19;101859.00;;;20.92;70.34
72086;BME280;64750;52.134;5.424;2023-09-08T01:10:46;101857.28;;;20.91;70.30
72086;BME280;64750;52.134;5.424;2023-09-08T01:13:14;101853.34;;;20.95;70.11
72086;BME280;64750;52.134;5.424;2023-09-08T01:15:40;101865.59;;;20.88;70.17
72086;BME280;64750;52.134;5.424;2023-09-08T01:18:07;101858.56;;;20.87;70.10
72086;BME280;64750;52.134;5.424;2023-09-08T01:25:55;101851.34;;;20.78;70.02
72086;BME280;64750;52.134;5.424;2023-09-08T01:28:25;101860.25;;;20.67;70.21
72086;BME280;64750;52.134;5.424;2023-09-08T01:30:53;101853.50;;;20.63;70.42
72086;BME280;64750;52.134;5.424;2023-09-08T01:33:22;101855.31;;;20.62;71.11
72086;BME280;64750;52.134;5.424;2023-09-08T01:35:48;101861.75;;;20.60;71.18
72086;BME280;64750;52.134;5.424;2023-09-08T01:38:16;101864.31;;;20.61;71.12
72086;BME280;64750;52.134;5.424;2023-09-08T01:40:42;101861.75;;;20.60;71.06
72086;BME280;64750;52.134;5.424;2023-09-08T01:43:09;101863.75;;;20.58;70.94
72086;BME280;64750;52.134;5.424;2023-09-08T01:45:35;101855.88;;;20.56;70.97
72086;BME280;64750;52.134;5.424;2023-09-08T01:48:02;101857.53;;;20.57;70.95
72086;BME280;64750;52.134;5.424;2023-09-08T01:50:29;101864.72;;;20.57;70.81
72086;BME280;64750;52.134;5.424;2023-09-08T01:52:55;101860.47;;;20.54;70.98
72086;BME280;64750;52.134;5.424;2023-09-08T01:55:22;101851.50;;;20.55;70.85
72086;BME280;64750;52.134;5.424;2023-09-08T01:57:49;101851.63;;;20.54;70.80
72086;BME280;64750;52.134;5.424;2023-09-08T02:00:15;101854.69;;;20.49;70.92
72086;BME280;64750;52.134;5.424;2023-09-08T02:02:42;101853.72;;;20.50;71.10
72086;BME280;64750;52.134;5.424;2023-09-08T02:05:08;101849.94;;;20.53;70.83
72086;BME280;64750;52.134;5.424;2023-09-08T02:07:35;101860.63;;;20.53;70.46
72086;BME280;64750;52.134;5.424;2023-09-08T02:10:02;101860.16;;;20.47;70.77
72086;BME280;64750;52.134;5.424;2023-09-08T02:12:29;101863.94;;;20.45;70.70
72086;BME280;64750;52.134;5.424;2023-09-08T02:14:55;101857.44;;;20.38;70.67
72086;BME280;64750;52.134;5.424;2023-09-08T02:17:22;101852.38;;;20.35;70.79
72086;BME280;64750;52.134;5.424;2023-09-08T02:19:48;101852.38;;;20.35;70.98
72086;BME280;64750;52.134;5.424;2023-09-08T02:22:15;101857.00;;;20.32;71.23
72086;BME280;64750;52.134;5.424;2023-09-08T02:24:41;101856.28;;;20.30;71.07
72086;BME280;64750;52.134;5.424;2023-09-08T02:27:08;101855.84;;;20.25;71.43
72086;BME280;64750;52.134;5.424;2023-09-08T02:29:34;101857.41;;;20.28;71.32
72086;BME280;64750;52.134;5.424;2023-09-08T02:32:01;101848.38;;;20.29;71.26
72086;BME280;64750;52.134;5.424;2023-09-08T02:34:28;101849.13;;;20.31;71.37
72086;BME280;64750;52.134;5.424;2023-09-08T02:36:55;101852.63;;;20.31;71.01
72086;BME280;64750;52.134;5.424;2023-09-08T02:39:21;101852.50;;;20.33;70.79
72086;BME280;64750;52.134;5.424;2023-09-08T02:41:49;101844.59;;;20.31;70.96
72086;BME280;64750;52.134;5.424;2023-09-08T02:44:16;101842.94;;;20.30;70.84
72086;BME280;64750;52.134;5.424;2023-09-08T02:46:42;101851.94;;;20.29;70.96
72086;BME280;64750;52.134;5.424;2023-09-08T02:49:09;101841.50;;;20.26;70.85
72086;BME280;64750;52.134;5.424;2023-09-08T02:51:35;101843.47;;;20.24;70.83
72086;BME280;64750;52.134;5.424;2023-09-08T02:54:02;101850.88;;;20.21;71.15
72086;BME280;64750;52.134;5.424;2023-09-08T02:56:31;101852.69;;;20.20;71.23
72086;BME280;64750;52.134;5.424;2023-09-08T02:58:57;101856.91;;;20.23;71.11
72086;BME280;64750;52.134;5.424;2023-09-08T03:01:26;101850.88;;;20.21;71.16
72086;BME280;64750;52.134;5.424;2023-09-08T03:03:52;101853.78;;;20.17;70.92
72086;BME280;64750;52.134;5.424;2023-09-08T03:06:20;101859.53;;;20.13;71.20
72086;BME280;64750;52.134;5.424;2023-09-08T03:08:47;101853.88;;;20.06;71.30
72086;BME280;64750;52.134;5.424;2023-09-08T03:11:13;101861.75;;;20.08;71.51
72086;BME280;64750;52.134;5.424;2023-09-08T03:13:40;101855.31;;;20.10;71.39
72086;BME280;64750;52.134;5.424;2023-09-08T03:16:07;101859.91;;;20.08;71.50
72086;BME280;64750;52.134;5.424;2023-09-08T03:18:35;101851.69;;;20.11;71.62
72086;BME280;64750;52.134;5.424;2023-09-08T03:21:03;101853.94;;;20.16;71.00
72086;BME280;64750;52.134;5.424;2023-09-08T03:23:40;101855.91;;;20.14;70.98
72086;BME280;64750;52.134;5.424;2023-09-08T03:26:07;101850.56;;;20.14;71.20
72086;BME280;64750;52.134;5.424;2023-09-08T03:28:35;101850.13;;;20.09;71.38
72086;BME280;64750;52.134;5.424;2023-09-08T03:31:03;101847.81;;;20.04;71.53
72086;BME280;64750;52.134;5.424;2023-09-08T03:33:30;101846.63;;;19.97;71.64
72086;BME280;64750;52.134;5.424;2023-09-08T03:35:57;101844.69;;;19.99;71.61
72086;BME280;64750;52.134;5.424;2023-09-08T03:38:24;101837.53;;;19.99;71.48
72086;BME280;64750;52.134;5.424;2023-09-08T03:40:50;101840.31;;;19.98;71.22
72086;BME280;64750;52.134;5.424;2023-09-08T03:43:16;101838.06;;;19.93;71.31
72086;BME280;64750;52.134;5.424;2023-09-08T03:45:43;101834.53;;;19.93;71.39
72086;BME280;64750;52.134;5.424;2023-09-08T03:48:13;101836.88;;;19.86;71.72
72086;BME280;64750;52.134;5.424;2023-09-08T03:50:39;101827.91;;;19.87;71.65
72086;BME280;64750;52.134;5.424;2023-09-08T03:53:06;101835.63;;;19.90;71.44
72086;BME280;64750;52.134;5.424;2023-09-08T03:55:32;101831.53;;;19.86;71.50
72086;BME280;64750;52.134;5.424;2023-09-08T03:57:59;101830.56;;;19.87;71.71
72086;BME280;64750;52.134;5.424;2023-09-08T04:00:25;101826.47;;;19.83;71.92
72086;BME280;64750;52.134;5.424;2023-09-08T04:02:52;101824.50;;;19.85;71.54
72086;BME280;64750;52.134;5.424;2023-09-08T04:05:18;101819.44;;;19.82;71.56
72086;BME280;64750;52.134;5.424;2023-09-08T04:07:45;101825.00;;;19.79;71.66
72086;BME280;64750;52.134;5.424;2023-09-08T04:10:12;101825.00;;;19.79;71.44
72086;BME280;64750;52.134;5.424;2023-09-08T04:12:41;101822.47;;;19.77;71.75
72086;BME280;64750;52.134;5.424;2023-09-08T04:15:09;101822.72;;;19.74;71.68
72086;BME280;64750;52.134;5.424;2023-09-08T04:17:36;101826.22;;;19.75;71.72
72086;BME280;64750;52.134;5.424;2023-09-08T04:20:04;101826.22;;;19.75;71.76
72086;BME280;64750;52.134;5.424;2023-09-08T04:22:33;101822.72;;;19.74;71.79
72086;BME280;64750;52.134;5.424;2023-09-08T04:25:00;101824.81;;;19.71;72.01
72086;BME280;64750;52.134;5.424;2023-09-08T04:27:26;101826.88;;;19.67;72.10
72086;BME280;64750;52.134;5.424;2023-09-08T04:29:53;101830.63;;;19.64;72.07
72086;BME280;64750;52.134;5.424;2023-09-08T04:32:19;101823.59;;;19.63;72.09
72086;BME280;64750;52.134;5.424;2023-09-08T04:34:46;101822.63;;;19.64;72.31
72086;BME280;64750;52.134;5.424;2023-09-08T04:37:13;101820.94;;;19.63;72.06
72086;BME280;64750;52.134;5.424;2023-09-08T04:39:40;101832.84;;;19.59;72.25
72086;BME280;64750;52.134;5.424;2023-09-08T04:42:07;101831.28;;;19.57;72.37
72086;BME280;64750;52.134;5.424;2023-09-08T04:44:33;101821.72;;;19.54;72.59
72086;BME280;64750;52.134;5.424;2023-09-08T04:47:00;101829.13;;;19.50;72.90
72086;BME280;64750;52.134;5.424;2023-09-08T04:49:27;101827.41;;;19.49;73.05
72086;BME280;64750;52.134;5.424;2023-09-08T04:51:55;101828.16;;;19.51;72.95
72086;BME280;64750;52.134;5.424;2023-09-08T04:54:21;101829.84;;;19.53;72.96
72086;BME280;64750;52.134;5.424;2023-09-08T04:56:50;101827.19;;;19.53;72.88
72086;BME280;64750;52.134;5.424;2023-09-08T04:59:17;101825.63;;;19.50;72.75
72086;BME280;64750;52.134;5.424;2023-09-08T05:01:44;101829.25;;;19.49;72.84
72086;BME280;64750;52.134;5.424;2023-09-08T05:04:11;101828.50;;;19.47;72.74
72086;BME280;64750;52.134;5.424;2023-09-08T05:06:37;101835.94;;;19.43;72.58
72086;BME280;64750;52.134;5.424;2023-09-08T05:09:04;101835.81;;;19.45;72.35
72086;BME280;64750;52.134;5.424;2023-09-08T05:11:31;101827.81;;;19.45;72.32
72086;BME280;64750;52.134;5.424;2023-09-08T05:13:57;101830.00;;;19.40;72.75
72086;BME280;64750;52.134;5.424;2023-09-08T05:16:24;101825.66;;;19.39;72.60
72086;BME280;64750;52.134;5.424;2023-09-08T05:19:05;101830.00;;;19.40;72.51
72086;BME280;64750;52.134;5.424;2023-09-08T05:21:34;101831.13;;;19.37;72.91
72086;BME280;64750;52.134;5.424;2023-09-08T05:24:01;101830.50;;;19.33;72.78
72086;BME280;64750;52.134;5.424;2023-09-08T05:26:27;101831.59;;;19.31;72.84
72086;BME280;64750;52.134;5.424;2023-09-08T05:28:54;101825.69;;;19.27;73.05
72086;BME280;64750;52.134;5.424;2023-09-08T05:31:20;101832.94;;;19.25;73.26
72086;BME280;64750;52.134;5.424;2023-09-08T05:33:47;101836.59;;;19.24;73.79
72086;BME280;64750;52.134;5.424;2023-09-08T05:36:14;101841.94;;;19.24;73.63
72086;BME280;64750;52.134;5.424;2023-09-08T05:38:41;101836.59;;;19.24;74.05
72086;BME280;64750;52.134;5.424;2023-09-08T05:41:08;101843.59;;;19.25;74.03
72086;BME280;64750;52.134;5.424;2023-09-08T05:43:34;101849.94;;;19.24;74.60
72086;BME280;64750;52.134;5.424;2023-09-08T05:46:01;101845.31;;;19.26;74.68
72086;BME280;64750;52.134;5.424;2023-09-08T05:48:28;101845.78;;;19.31;74.38
72086;BME280;64750;52.134;5.424;2023-09-08T05:50:54;101844.53;;;19.35;74.64
72086;BME280;64750;52.134;5.424;2023-09-08T05:53:21;101840.69;;;19.40;74.49
72086;BME280;64750;52.134;5.424;2023-09-08T05:55:47;101845.59;;;19.44;74.36
72086;BME280;64750;52.134;5.424;2023-09-08T05:58:14;101845.25;;;19.49;73.91
72086;BME280;64750;52.134;5.424;2023-09-08T06:00:41;101853.13;;;19.50;74.46
72086;BME280;64750;52.134;5.424;2023-09-08T06:03:07;101858.31;;;19.52;74.39
72086;BME280;64750;52.134;5.424;2023-09-08T06:05:35;101853.84;;;19.53;74.48
72086;BME280;64750;52.134;5.424;2023-09-08T06:08:01;101853.84;;;19.53;74.89
72086;BME280;64750;52.134;5.424;2023-09-08T06:10:33;101859.19;;;19.53;75.44
72086;BME280;64750;52.134;5.424;2023-09-08T06:12:59;101860.75;;;19.55;75.07
72086;BME280;64750;52.134;5.424;2023-09-08T06:15:27;101858.78;;;19.57;74.59
72086;BME280;64750;52.134;5.424;2023-09-08T06:17:54;101857.81;;;19.58;74.76
72086;BME280;64750;52.134;5.424;2023-09-08T06:20:20;101856.56;;;19.62;74.35
72086;BME280;64750;52.134;5.424;2023-09-08T06:22:47;101867.00;;;19.65;74.06
72086;BME280;64750;52.134;5.424;2023-09-08T06:25:14;101864.34;;;19.65;74.50
72086;BME280;64750;52.134;5.424;2023-09-08T06:27:40;101859.59;;;19.69;74.09
72086;BME280;64750;52.134;5.424;2023-09-08T06:30:07;101855.84;;;19.72;74.03
72086;BME280;64750;52.134;5.424;2023-09-08T06:32:34;101855.72;;;19.73;73.86
72086;BME280;64750;52.134;5.424;2023-09-08T06:35:00;101854.34;;;19.79;73.76
72086;BME280;64750;52.134;5.424;2023-09-08T06:37:27;101861.38;;;19.80;73.83
72086;BME280;64750;52.134;5.424;2023-09-08T06:39:55;101856.78;;;19.82;73.63
72086;BME280;64750;52.134;5.424;2023-09-08T06:42:21;101869.16;;;19.83;73.88
72086;BME280;64750;52.134;5.424;2023-09-08T06:44:48;101868.06;;;19.86;73.57
72086;BME280;64750;52.134;5.424;2023-09-08T06:47:14;101870.59;;;19.87;73.84
72086;BME280;64750;52.134;5.424;2023-09-08T06:49:41;101865.84;;;19.91;73.64
72086;BME280;64750;52.134;5.424;2023-09-08T06:52:07;101865.00;;;19.90;74.04
72086;BME280;64750;52.134;5.424;2023-09-08T06:54:34;101866.81;;;19.90;73.88
72086;BME280;64750;52.134;5.424;2023-09-08T06:57:00;101873.97;;;19.89;74.07
72086;BME280;64750;52.134;5.424;2023-09-08T06:59:27;101868.53;;;19.91;74.04
72086;BME280;64750;52.134;5.424;2023-09-08T07:01:53;101870.09;;;19.93;74.32
72086;BME280;64750;52.134;5.424;2023-09-08T07:04:20;101872.63;;;19.95;74.40
72086;BME280;64750;52.134;5.424;2023-09-08T07:06:47;101879.38;;;19.99;74.26
72086;BME280;64750;52.134;5.424;2023-09-08T07:09:13;101874.78;;;20.01;74.00
72086;BME280;64750;52.134;5.424;2023-09-08T07:11:40;101882.38;;;20.06;74.12
72086;BME280;64750;52.134;5.424;2023-09-08T07:14:07;101875.09;;;20.08;74.82
72086;BME280;64750;52.134;5.424;2023-09-08T07:16:33;101878.38;;;20.11;74.43
72086;BME280;64750;52.134;5.424;2023-09-08T07:19:01;101875.56;;;20.13;74.26
72086;BME280;64750;52.134;5.424;2023-09-08T07:21:27;101873.34;;;20.18;74.34
72086;BME280;64750;52.134;5.424;2023-09-08T07:23:54;101875.59;;;20.23;74.42
72086;BME280;64750;52.134;5.424;2023-09-08T07:26:23;101871.72;;;20.27;74.39
72086;BME280;64750;52.134;5.424;2023-09-08T07:28:50;101879.31;;;20.31;74.52
72086;BME280;64750;52.134;5.424;2023-09-08T07:31:16;101879.06;;;20.35;74.21
72086;BME280;64750;52.134;5.424;2023-09-08T07:33:43;101872.47;;;20.39;74.39
72086;BME280;64750;52.134;5.424;2023-09-08T07:36:10;101876.44;;;20.44;74.30
72086;BME280;64750;52.134;5.424;2023-09-08T07:38:37;101886.72;;;20.49;74.22
72086;BME280;64750;52.134;5.424;2023-09-08T07:41:03;101880.16;;;20.53;74.55
72086;BME280;64750;52.134;5.424;2023-09-08T07:43:30;101884.13;;;20.59;74.21
72086;BME280;64750;52.134;5.424;2023-09-08T07:45:56;101881.75;;;20.65;73.97
72086;BME280;64750;52.134;5.424;2023-09-08T07:48:25;101880.41;;;20.71;73.42
72086;BME280;64750;52.134;5.424;2023-09-08T07:50:52;101876.50;;;20.75;73.18
72086;BME280;64750;52.134;5.424;2023-09-08T07:53:18;101883.41;;;20.78;73.76
72086;BME280;64750;52.134;5.424;2023-09-08T07:55:45;101883.56;;;20.86;73.41
72086;BME280;64750;52.134;5.424;2023-09-08T07:58:11;101877.69;;;20.92;73.65
72086;BME280;64750;52.134;5.424;2023-09-08T08:00:38;101871.81;;;20.98;73.57
72086;BME280;64750;52.134;5.424;2023-09-08T08:03:04;101875.63;;;21.06;73.48
72086;BME280;64750;52.134;5.424;2023-09-08T08:05:32;101874.09;;;21.13;73.45
72086;BME280;64750;52.134;5.424;2023-09-08T08:07:59;101878.03;;;21.19;73.35
72086;BME280;64750;52.134;5.424;2023-09-08T08:10:25;101876.38;;;21.27;73.85
72086;BME280;64750;52.134;5.424;2023-09-08T08:12:52;101873.31;;;21.32;73.37
72086;BME280;64750;52.134;5.424;2023-09-08T08:15:20;101876.97;;;21.41;73.54
72086;BME280;64750;52.134;5.424;2023-09-08T08:17:47;101876.41;;;21.47;73.38
72086;BME280;64750;52.134;5.424;2023-09-08T08:20:14;101876.72;;;21.54;73.56
72086;BME280;64750;52.134;5.424;2023-09-08T08:22:45;101872.50;;;21.61;73.59
72086;BME280;64750;52.134;5.424;2023-09-08T08:25:12;101869.28;;;21.67;73.46
72086;BME280;64750;52.134;5.424;2023-09-08T08:27:41;101869.03;;;21.70;73.83
72086;BME280;64750;52.134;5.424;2023-09-08T08:30:08;101865.47;;;21.70;73.61
72086;BME280;64750;52.134;5.424;2023-09-08T08:32:37;101859.00;;;21.72;74.04
72086;BME280;64750;52.134;5.424;2023-09-08T08:35:04;101857.88;;;21.75;73.74
72086;BME280;64750;52.134;5.424;2023-09-08T08:37:33;101853.25;;;21.77;73.84
72086;BME280;64750;52.134;5.424;2023-09-08T08:40:00;101856.19;;;21.84;74.27
72086;BME280;64750;52.134;5.424;2023-09-08T08:42:31;101855.88;;;21.96;73.21
72086;BME280;64750;52.134;5.424;2023-09-08T08:45:02;101861.91;;;22.08;73.74
72086;BME280;64750;52.134;5.424;2023-09-08T08:47:29;101858.25;;;22.19;73.20
72086;BME280;64750;52.134;5.424;2023-09-08T08:49:58;101858.38;;;22.27;73.13
72086;BME280;64750;52.134;5.424;2023-09-08T08:52:28;101854.00;;;22.36;73.55
72086;BME280;64750;52.134;5.424;2023-09-08T08:54:56;101862.03;;;22.46;72.74
72086;BME280;64750;52.134;5.424;2023-09-08T08:57:23;101863.13;;;22.53;72.58
72086;BME280;64750;52.134;5.424;2023-09-08T08:59:49;101866.34;;;22.57;71.89
72086;BME280;64750;52.134;5.424;2023-09-08T09:02:19;101862.09;;;22.64;71.56
72086;BME280;64750;52.134;5.424;2023-09-08T09:04:46;101864.19;;;22.70;71.32
72086;BME280;64750;52.134;5.424;2023-09-08T09:07:13;101867.97;;;22.77;71.36
72086;BME280;64750;52.134;5.424;2023-09-08T09:09:40;101866.66;;;22.82;71.26
72086;BME280;64750;52.134;5.424;2023-09-08T09:12:07;101864.53;;;22.85;71.37
72086;BME280;64750;52.134;5.424;2023-09-08T09:14:34;101863.28;;;22.89;70.72
72086;BME280;64750;52.134;5.424;2023-09-08T09:17:01;101868.16;;;22.94;70.43
72086;BME280;64750;52.134;5.424;2023-09-08T09:19:31;101870.25;;;23.00;70.93
72086;BME280;64750;52.134;5.424;2023-09-08T09:22:01;101862.63;;;23.05;71.29
72086;BME280;64750;52.134;5.424;2023-09-08T09:24:36;101868.38;;;23.10;70.77
72086;BME280;64750;52.134;5.424;2023-09-08T09:27:05;101866.22;;;23.14;70.64
72086;BME280;64750;52.134;5.424;2023-09-08T09:29:44;101863.28;;;23.17;70.26
72086;BME280;64750;52.134;5.424;2023-09-08T09:32:13;101862.50;;;23.25;70.22
72086;BME280;64750;52.134;5.424;2023-09-08T09:34:53;101861.47;;;23.36;70.30
72086;BME280;64750;52.134;5.424;2023-09-08T09:37:20;101856.19;;;23.44;70.56
72086;BME280;64750;52.134;5.424;2023-09-08T09:39:51;101871.34;;;23.53;69.60
72086;BME280;64750;52.134;5.424;2023-09-08T09:42:18;101865.09;;;23.63;69.14
72086;BME280;64750;52.134;5.424;2023-09-08T09:44:51;101858.09;;;23.70;69.11
72086;BME280;64750;52.134;5.424;2023-09-08T09:47:18;101856.47;;;23.77;69.89
72086;BME280;64750;52.134;5.424;2023-09-08T09:49:46;101855.88;;;23.83;70.18
72086;BME280;64750;52.134;5.424;2023-09-08T09:52:14;101865.00;;;23.90;70.10
72086;BME280;64750;52.134;5.424;2023-09-08T09:54:47;101858.06;;;23.88;68.76
72086;BME280;64750;52.134;5.424;2023-09-08T09:57:14;101859.53;;;23.82;69.13
72086;BME280;64750;52.134;5.424;2023-09-08T09:59:41;101856.47;;;23.77;68.87
72086;BME280;64750;52.134;5.424;2023-09-08T10:02:13;101858.47;;;23.75;69.17
72086;BME280;64750;52.134;5.424;2023-09-08T10:04:40;101858.34;;;23.77;69.33
72086;BME280;64750;52.134;5.424;2023-09-08T10:07:08;101859.88;;;23.79;69.80
72086;BME280;64750;52.134;5.424;2023-09-08T10:09:37;101858.19;;;23.78;69.61
72086;BME280;64750;52.134;5.424;2023-09-08T10:12:05;101861.84;;;23.77;69.97
72086;BME280;64750;52.134;5.424;2023-09-08T10:14:36;101857.03;;;23.81;69.54
72086;BME280;64750;52.134;5.424;2023-09-08T10:17:05;101855.00;;;23.83;70.11
72086;BME280;64750;52.134;5.424;2023-09-08T10:19:33;101855.25;;;23.89;70.13
72086;BME280;64750;52.134;5.424;2023-09-08T10:22:11;101855.66;;;23.95;69.67
72086;BME280;64750;52.134;5.424;2023-09-08T10:24:39;101850.97;;;23.97;70.13
72086;BME280;64750;52.134;5.424;2023-09-08T10:27:11;101846.13;;;24.00;69.83
72086;BME280;64750;52.134;5.424;2023-09-08T10:29:38;101853.72;;;24.05;70.33
72086;BME280;64750;52.134;5.424;2023-09-08T10:32:07;101841.81;;;24.07;69.25
72086;BME280;64750;52.134;5.424;2023-09-08T10:34:35;101853.75;;;24.13;69.74
72086;BME280;64750;52.134;5.424;2023-09-08T10:37:02;101848.47;;;24.21;69.55
72086;BME280;64750;52.134;5.424;2023-09-08T10:39:33;101847.16;;;24.26;69.71
72086;BME280;64750;52.134;5.424;2023-09-08T10:47:14;101842.16;;;24.39;69.04
72086;BME280;64750;52.134;5.424;2023-09-08T10:49:41;101833.81;;;24.42;68.99
72086;BME280;64750;52.134;5.424;2023-09-08T10:52:08;101837.53;;;24.49;68.79
72086;BME280;64750;52.134;5.424;2023-09-08T10:54:42;101837.88;;;24.54;69.61
72086;BME280;64750;52.134;5.424;2023-09-08T10:57:16;101833.38;;;24.55;68.90
72086;BME280;64750;52.134;5.424;2023-09-08T11:00:03;101837.06;;;24.54;69.47
72086;BME280;64750;52.134;5.424;2023-09-08T11:02:41;101838.41;;;24.58;69.64
72086;BME280;64750;52.134;5.424;2023-09-08T11:05:10;101840.75;;;24.61;69.28
72086;BME280;64750;52.134;5.424;2023-09-08T11:07:37;101839.63;;;24.64;69.86
72086;BME280;64750;52.134;5.424;2023-09-08T11:10:05;101842.00;;;24.67;69.20
72086;BME280;64750;52.134;5.424;2023-09-08T11:12:32;101843.25;;;24.81;69.54
72086;BME280;64750;52.134;5.424;2023-09-08T11:15:01;101838.25;;;24.94;68.21
72086;BME280;64750;52.134;5.424;2023-09-08T11:17:28;101836.41;;;25.03;68.48
72086;BME280;64750;52.134;5.424;2023-09-08T11:19:55;101833.78;;;25.11;68.20
72086;BME280;64750;52.134;5.424;2023-09-08T11:22:25;101833.78;;;25.19;67.96
72086;BME280;64750;52.134;5.424;2023-09-08T11:24:52;101834.94;;;25.25;69.12
72086;BME280;64750;52.134;5.424;2023-09-08T11:27:20;101841.84;;;25.28;67.17
72086;BME280;64750;52.134;5.424;2023-09-08T11:42:00;101839.06;;;25.70;66.53
72086;BME280;64750;52.134;5.424;2023-09-08T11:44:27;101829.13;;;25.71;67.61
72086;BME280;64750;52.134;5.424;2023-09-08T11:46:54;101836.22;;;25.72;66.55
72086;BME280;64750;52.134;5.424;2023-09-08T11:49:21;101830.47;;;25.75;66.45
72086;BME280;64750;52.134;5.424;2023-09-08T11:51:49;101832.16;;;25.76;66.05
72086;BME280;64750;52.134;5.424;2023-09-08T11:54:16;101830.13;;;25.86;65.89
72086;BME280;64750;52.134;5.424;2023-09-08T11:56:43;101835.22;;;25.90;65.78
72086;BME280;64750;52.134;5.424;2023-09-08T11:59:12;101829.63;;;25.91;65.19
72086;BME280;64750;52.134;5.424;2023-09-08T12:01:39;101834.50;;;25.96;65.00
72086;BME280;64750;52.134;5.424;2023-09-08T12:04:06;101830.84;;;26.05;66.02
72086;BME280;64750;52.134;5.424;2023-09-08T12:06:32;101829.84;;;26.06;65.05
72086;BME280;64750;52.134;5.424;2023-09-08T12:09:02;101823.59;;;26.06;65.03
72086;BME280;64750;52.134;5.424;2023-09-08T12:11:33;101825.78;;;26.10;65.65
72086;BME280;64750;52.134;5.424;2023-09-08T12:14:01;101822.72;;;26.13;64.73
72086;BME280;64750;52.134;5.424;2023-09-08T12:16:28;101829.44;;;26.17;64.10
72086;BME280;64750;52.134;5.424;2023-09-08T12:18:54;101827.94;;;26.23;64.32
72086;BME280;64750;52.134;5.424;2023-09-08T12:21:21;101829.25;;;26.27;64.55
72086;BME280;64750;52.134;5.424;2023-09-08T12:23:49;101830.94;;;26.28;64.16
72086;BME280;64750;52.134;5.424;2023-09-08T12:26:16;101825.34;;;26.38;64.87
72086;BME280;64750;52.134;5.424;2023-09-08T12:28:43;101832.91;;;26.43;64.41
72086;BME280;64750;52.134;5.424;2023-09-08T12:31:10;101826.72;;;26.42;63.18
72086;BME280;64750;52.134;5.424;2023-09-08T12:33:39;101818.06;;;26.47;63.42
72086;BME280;64750;52.134;5.424;2023-09-08T12:36:17;101824.16;;;26.49;63.79
72086;BME280;64750;52.134;5.424;2023-09-08T12:38:51;101819.91;;;26.55;62.93
72086;BME280;64750;52.134;5.424;2023-09-08T12:41:21;101820.91;;;26.62;63.46
72086;BME280;64750;52.134;5.424;2023-09-08T12:43:47;101818.50;;;26.67;62.85
72086;BME280;64750;52.134;5.424;2023-09-08T12:46:16;101820.69;;;26.72;62.52
72086;BME280;64750;52.134;5.424;2023-09-08T12:48:43;101819.84;;;26.79;62.69
72086;BME280;64750;52.134;5.424;2023-09-08T12:51:09;101816.59;;;26.84;62.28
72086;BME280;64750;52.134;5.424;2023-09-08T12:53:39;101816.44;;;26.85;62.36
72086;BME280;64750;52.134;5.424;2023-09-08T12:56:05;101821.34;;;26.82;61.98
72086;BME280;64750;52.134;5.424;2023-09-08T12:58:32;101811.91;;;26.78;62.20
72086;BME280;64750;52.134;5.424;2023-09-08T13:01:00;101812.75;;;26.78;62.46
72086;BME280;64750;52.134;5.424;2023-09-08T13:03:27;101810.41;;;26.75;62.13
72086;BME280;64750;52.134;5.424;2023-09-08T13:05:55;101813.09;;;26.75;62.66
72086;BME280;64750;52.134;5.424;2023-09-08T13:08:21;101809.53;;;26.83;63.02
72086;BME280;64750;52.134;5.424;2023-09-08T13:10:47;101809.69;;;26.81;61.80
72086;BME280;64750;52.134;5.424;2023-09-08T13:13:14;101808.00;;;26.80;61.78
72086;BME280;64750;52.134;5.424;2023-09-08T13:15:41;101805.28;;;26.89;62.56